Time;durP1;ratioP1;P1;durP2;ratioP2;P2;SDS_P1;SDS_P2;PMS_P1;PMS_P2;Temp;Humidity;BMP_temperature;BMP_pressure;BME280_temperature;BME280_humidity;BME280_pressure;Samples;Min_cycle;Max_cycle;Signal;HPM_P1;HPM_P2
2023/05/04 03:51:25;;;;;;;11.83;7.10;;;;;;;5.49;100.00;63288.28;5720721;23;20408;-93
2023/05/04 03:53:50;;;;;;;10.88;6.25;;;;;;;5.47;100.00;63286.38;4977428;28;20038;-96
2023/05/04 03:56:15;;;;;;;16.13;6.47;;;;;;;5.44;100.00;63283.81;4977761;28;20077;-96
2023/05/04 03:58:41;;;;;;;12.00;6.10;;;;;;;5.43;100.00;63282.09;4976908;28;20114;-96
2023/05/04 04:01:06;;;;;;;11.70;7.17;;;;;;;5.41;100.00;63279.59;4976694;28;20023;-96
2023/05/04 04:03:31;;;;;;;11.77;6.70;;;;;;;5.39;100.00;63278.03;4977032;28;20029;-96
2023/05/04 04:05:57;;;;;;;10.60;6.63;;;;;;;5.37;100.00;63276.78;4965886;28;20282;-96
2023/05/04 04:08:23;;;;;;;9.50;6.30;;;;;;;5.36;100.00;63275.44;4959105;29;20031;-96
2023/05/04 04:10:48;;;;;;;15.50;6.73;;;;;;;5.35;100.00;63274.38;4966941;29;20271;-96
2023/05/04 04:13:13;;;;;;;9.97;6.23;;;;;;;5.34;100.00;63272.81;4969378;29;20031;-96
2023/05/04 04:15:39;;;;;;;11.20;6.53;;;;;;;5.33;100.00;63271.97;4973992;28;20019;-96
2023/05/04 04:18:04;;;;;;;12.20;6.27;;;;;;;5.32;100.00;63271.72;4980250;28;20108;-96
2023/05/04 04:20:30;;;;;;;13.02;6.93;;;;;;;5.31;100.00;63270.66;4980150;28;20011;-94
2023/05/04 04:22:55;;;;;;;12.57;6.60;;;;;;;5.31;100.00;63270.16;4979189;28;20011;-96
2023/05/04 04:25:20;;;;;;;16.30;7.97;;;;;;;5.31;100.00;63270.47;4961014;28;20042;-96
2023/05/04 04:27:45;;;;;;;10.93;6.80;;;;;;;5.31;100.00;63270.72;4978478;28;20066;-96
2023/05/04 04:30:12;;;;;;;10.90;7.10;;;;;;;5.32;100.00;63271.47;4965342;29;20090;-96
2023/05/04 04:32:38;;;;;;;10.10;6.30;;;;;;;5.33;100.00;63272.16;4963727;29;20019;-96
2023/05/04 04:35:04;;;;;;;12.25;6.13;;;;;;;5.34;100.00;63273.22;4958042;28;20027;-96
2023/05/04 04:37:29;;;;;;;10.00;6.57;;;;;;;5.35;100.00;63274.53;4958946;29;20031;-95
2023/05/04 04:39:54;;;;;;;15.87;6.70;;;;;;;5.37;100.00;63276.38;4953895;29;20030;-95
2023/05/04 04:42:20;;;;;;;13.10;6.23;;;;;;;5.40;100.00;63278.59;4946894;28;20035;-94
2023/05/04 04:44:45;;;;;;;10.20;6.57;;;;;;;5.42;100.00;63280.84;4934784;29;20034;-96
2023/05/04 04:47:11;;;;;;;11.37;6.10;;;;;;;5.44;100.00;63283.47;4951230;28;20451;-93
2023/05/04 04:49:36;;;;;;;10.40;6.13;;;;;;;5.48;100.00;63286.47;4952859;29;20101;-94
2023/05/04 04:52:02;;;;;;;12.63;6.70;;;;;;;5.50;100.00;63289.69;4952018;28;20054;-93
2023/05/04 04:54:28;;;;;;;10.18;5.95;;;;;;;5.54;100.00;63293.50;4952768;29;20047;-93
2023/05/04 04:56:53;;;;;;;13.23;6.70;;;;;;;5.57;100.00;63297.31;4951769;28;20071;-92
2023/05/04 04:59:19;;;;;;;9.20;6.30;;;;;;;5.61;100.00;63301.34;4952204;29;20035;-94
2023/05/04 05:01:44;;;;;;;11.97;6.20;;;;;;;5.65;100.00;63304.84;4952249;29;20034;-94
2023/05/04 05:04:10;;;;;;;9.15;6.15;;;;;;;5.68;100.00;63308.91;4952169;29;20501;-94
2023/05/04 05:06:35;;;;;;;13.20;6.40;;;;;;;5.72;100.00;63312.63;4951884;28;20027;-94
2023/05/04 05:09:00;;;;;;;17.70;5.90;;;;;;;5.77;100.00;63317.34;4959149;29;20031;-96
2023/05/04 05:11:26;;;;;;;7.43;5.80;;;;;;;5.81;100.00;63321.75;4959283;29;20063;-96
2023/05/04 05:13:51;;;;;;;11.90;6.07;;;;;;;5.87;100.00;63327.13;4954578;29;20471;-94
2023/05/04 05:16:17;;;;;;;12.33;6.03;;;;;;;5.92;100.00;63332.91;4961564;28;20073;-93
2023/05/04 05:18:42;;;;;;;13.90;6.47;;;;;;;5.99;99.00;63339.53;4974744;28;20033;-95
2023/05/04 05:21:09;;;;;;;9.77;5.77;;;;;;;6.06;97.92;63347.09;4978634;28;20047;-96
2023/05/04 05:23:35;;;;;;;10.38;6.13;;;;;;;6.14;97.40;63355.06;4978711;28;20121;-94
2023/05/04 05:26:01;;;;;;;11.07;5.53;;;;;;;6.22;97.19;63363.19;4961490;28;20047;-96
2023/05/04 05:28:26;;;;;;;13.43;6.00;;;;;;;6.29;96.34;63370.38;4941571;29;20103;-96
2023/05/04 05:30:51;;;;;;;12.97;6.23;;;;;;;6.37;96.07;63377.94;4938343;29;20031;-93
2023/05/04 05:33:17;;;;;;;13.83;6.10;;;;;;;6.44;96.23;63385.28;4932915;29;20114;-93
2023/05/04 05:35:43;;;;;;;9.15;5.47;;;;;;;6.52;95.80;63392.84;4940572;28;20022;-93
2023/05/04 05:38:08;;;;;;;12.90;5.87;;;;;;;6.59;95.47;63400.22;4949304;28;20154;-88
2023/05/04 05:40:35;;;;;;;11.23;4.97;;;;;;;6.67;95.41;63407.84;4935372;29;20086;-88
2023/05/04 05:43:00;;;;;;;10.57;5.55;;;;;;;6.74;94.63;63415.31;4934479;29;20034;-85
2023/05/04 05:45:26;;;;;;;12.57;5.40;;;;;;;6.82;93.79;63423.34;4947852;28;20035;-87
2023/05/04 05:47:51;;;;;;;13.57;5.23;;;;;;;6.90;93.26;63431.31;4949168;28;20031;-85
2023/05/04 05:50:17;;;;;;;8.27;5.70;;;;;;;6.98;92.77;63438.94;4970682;28;20499;-86
2023/05/04 05:52:42;;;;;;;10.90;6.00;;;;;;;7.06;92.18;63446.88;4965895;28;20031;-86
2023/05/04 05:55:08;;;;;;;10.02;5.60;;;;;;;7.14;92.04;63455.09;4954238;29;20038;-86
2023/05/04 05:57:34;;;;;;;8.23;5.07;;;;;;;7.22;91.21;63463.22;4953896;28;20435;-85
2023/05/04 05:59:59;;;;;;;9.73;5.63;;;;;;;7.30;90.67;63471.53;4954283;29;20110;-85
2023/05/04 06:02:25;;;;;;;10.52;5.85;;;;;;;7.38;90.78;63479.41;4954784;29;20067;-85
2023/05/04 06:04:51;;;;;;;11.83;5.43;;;;;;;7.46;90.73;63487.28;4963467;28;20085;-85
2023/05/04 06:07:18;;;;;;;10.20;5.57;;;;;;;7.54;89.68;63495.00;4955939;28;20663;-85
2023/05/04 06:09:43;;;;;;;10.45;5.95;;;;;;;7.63;89.89;63503.63;4952118;28;20033;-86
2023/05/04 06:12:12;;;;;;;8.40;6.30;;;;;;;7.71;89.29;63511.91;4939185;29;20028;-86
2023/05/04 06:14:38;;;;;;;11.05;5.30;;;;;;;7.79;88.92;63520.63;4935912;29;20114;-86
2023/05/04 06:17:03;;;;;;;15.32;6.00;;;;;;;7.88;87.86;63529.16;4938315;28;20082;-86
2023/05/04 06:19:29;;;;;;;12.63;5.83;;;;;;;7.96;88.88;63537.63;4954961;29;20035;-86
2023/05/04 06:21:54;;;;;;;8.57;5.57;;;;;;;8.05;87.05;63546.44;4955118;29;20019;-84
2023/05/04 06:24:21;;;;;;;9.27;5.80;;;;;;;8.14;86.15;63555.53;4954944;29;20425;-86
2023/05/04 06:26:47;;;;;;;10.63;5.80;;;;;;;8.24;86.15;63564.84;4954122;29;20066;-85
2023/05/04 06:29:12;;;;;;;8.77;5.57;;;;;;;8.33;85.06;63574.31;4947898;28;20058;-85
2023/05/04 06:31:37;;;;;;;9.83;5.60;;;;;;;8.43;85.16;63584.44;4941980;28;20407;-85
2023/05/04 06:34:03;;;;;;;9.43;5.33;;;;;;;8.54;83.81;63595.06;4944027;29;20298;-86
2023/05/04 06:36:28;;;;;;;10.87;6.10;;;;;;;8.64;82.83;63605.22;4942697;29;20063;-84
2023/05/04 06:38:56;;;;;;;8.33;5.07;;;;;;;8.75;82.44;63615.56;4935704;28;20059;-84
2023/05/04 06:41:22;;;;;;;10.00;5.07;;;;;;;8.85;81.58;63626.53;4954485;29;20031;-84
2023/05/04 06:43:47;;;;;;;9.73;5.37;;;;;;;8.96;79.74;63637.50;4939574;29;20027;-84
2023/05/04 06:46:12;;;;;;;12.10;5.67;;;;;;;9.07;79.96;63648.47;4934673;29;20050;-85
2023/05/04 06:48:39;;;;;;;10.65;5.13;;;;;;;9.18;79.05;63659.19;4935333;28;20446;-85
2023/05/04 06:51:04;;;;;;;10.17;5.47;;;;;;;9.28;78.96;63669.31;4936450;28;20039;-85
2023/05/04 06:53:30;;;;;;;10.52;5.18;;;;;;;9.38;79.21;63679.63;4953152;29;20538;-86
2023/05/04 06:55:55;;;;;;;11.80;5.70;;;;;;;9.49;78.49;63690.56;4952865;29;20019;-86
2023/05/04 06:58:20;;;;;;;9.03;4.90;;;;;;;9.59;78.33;63700.38;4944705;29;20038;-88
2023/05/04 07:00:46;;;;;;;10.40;5.30;;;;;;;9.68;78.10;63710.50;4950902;28;20035;-87
2023/05/04 07:03:12;;;;;;;10.68;5.43;;;;;;;9.78;77.75;63720.88;4947019;29;20034;-87
2023/05/04 07:05:38;;;;;;;12.48;5.47;;;;;;;9.89;77.33;63731.09;4943059;29;20138;-87
2023/05/04 07:08:04;;;;;;;14.60;5.67;;;;;;;9.99;76.84;63741.59;4951285;29;20118;-87
2023/05/04 07:10:29;;;;;;;11.95;5.80;;;;;;;10.10;76.51;63752.47;4953628;28;20115;-86
2023/05/04 07:12:55;;;;;;;10.33;5.60;;;;;;;10.20;75.64;63763.19;4953101;29;20035;-87
2023/05/04 07:15:20;;;;;;;8.10;5.53;;;;;;;10.30;74.22;63773.41;4952629;29;20110;-87
2023/05/04 07:17:47;;;;;;;11.20;5.15;;;;;;;10.41;74.54;63783.75;4954532;28;20550;-88
2023/05/04 07:20:14;;;;;;;12.23;5.63;;;;;;;10.51;74.99;63794.03;4950222;28;20471;-89
2023/05/04 07:22:39;;;;;;;7.17;4.90;;;;;;;10.61;72.62;63804.34;4950570;29;20298;-88
2023/05/04 07:25:05;;;;;;;11.18;5.63;;;;;;;10.71;71.82;63814.59;4942810;29;20023;-87
2023/05/04 07:27:30;;;;;;;11.27;5.60;;;;;;;10.81;71.21;63824.22;4958071;28;20181;-88
2023/05/04 07:29:56;;;;;;;14.43;5.60;;;;;;;10.91;71.17;63834.88;4949260;29;20131;-88
2023/05/04 07:32:21;;;;;;;13.50;5.50;;;;;;;11.02;69.49;63845.34;4934581;29;20329;-88
2023/05/04 07:34:47;;;;;;;13.60;4.97;;;;;;;11.12;68.50;63856.06;4951503;28;20055;-87
2023/05/04 07:37:12;;;;;;;9.65;4.97;;;;;;;11.24;68.44;63867.28;4934887;29;20344;-86
2023/05/04 07:39:38;;;;;;;10.37;5.37;;;;;;;11.35;68.11;63879.28;4953632;29;20465;-86
2023/05/04 07:42:04;;;;;;;10.47;4.80;;;;;;;11.48;65.85;63891.75;4953159;29;20035;-87
2023/05/04 07:44:30;;;;;;;8.82;5.47;;;;;;;11.60;64.74;63904.22;4936949;28;20024;-87
2023/05/04 07:46:57;;;;;;;7.43;5.20;;;;;;;11.72;64.49;63915.81;4933616;29;20034;-87
2023/05/04 07:49:22;;;;;;;9.35;4.88;;;;;;;11.84;64.40;63927.69;4934265;29;20043;-87
2023/05/04 07:51:47;;;;;;;9.30;5.30;;;;;;;11.95;63.92;63939.84;4934059;29;20378;-87
2023/05/04 07:54:14;;;;;;;8.63;5.23;;;;;;;12.08;64.14;63952.69;4947484;28;20102;-87
2023/05/04 07:56:39;;;;;;;8.93;4.78;;;;;;;12.21;62.40;63965.25;4953042;29;20047;-87
2023/05/04 07:59:05;;;;;;;11.15;5.13;;;;;;;12.34;62.35;63978.31;4952820;29;20067;-86
2023/05/04 08:01:30;;;;;;;8.83;5.60;;;;;;;12.47;61.36;63992.22;4953309;29;20027;-87
2023/05/04 08:03:55;;;;;;;11.13;5.40;;;;;;;12.61;61.66;64006.03;4952514;28;20031;-87
2023/05/04 08:06:21;;;;;;;10.40;4.80;;;;;;;12.74;59.65;64019.44;4952589;29;20582;-87
2023/05/04 08:08:48;;;;;;;12.60;5.23;;;;;;;12.88;61.11;64033.19;4935796;29;20102;-86
2023/05/04 08:11:14;;;;;;;9.32;5.05;;;;;;;13.02;58.77;64047.59;4952747;29;20043;-86
2023/05/04 08:13:40;;;;;;;8.77;5.30;;;;;;;13.17;59.37;64062.19;4952479;28;20094;-86
2023/05/04 08:16:05;;;;;;;13.63;5.93;;;;;;;13.32;58.87;64078.41;4952178;28;20526;-86
2023/05/04 08:18:31;;;;;;;7.80;6.03;;;;;;;13.47;57.81;64093.59;4953086;29;20714;-86
2023/05/04 08:20:57;;;;;;;9.60;5.77;;;;;;;13.62;56.78;64108.50;4953817;29;20023;-86
2023/05/04 08:23:22;;;;;;;15.23;5.97;;;;;;;13.77;56.66;64123.66;4952761;28;20034;-87
2023/05/04 08:25:47;;;;;;;12.40;5.60;;;;;;;13.91;56.96;64138.00;4953362;28;20126;-87
2023/05/04 08:28:13;;;;;;;9.80;5.40;;;;;;;14.04;55.09;64151.41;4953633;29;20054;-87
2023/05/04 08:30:38;;;;;;;10.87;5.57;;;;;;;14.17;56.62;64164.69;4955073;29;20061;-86
2023/05/04 08:33:04;;;;;;;9.47;5.23;;;;;;;14.30;55.15;64177.69;4954067;29;20153;-86
2023/05/04 08:35:29;;;;;;;10.20;5.38;;;;;;;14.41;55.52;64189.19;4953812;28;20035;-86
2023/05/04 08:37:55;;;;;;;12.30;5.60;;;;;;;14.52;54.91;64200.19;4956154;29;20349;-87
2023/05/04 08:40:22;;;;;;;12.40;6.00;;;;;;;14.63;56.27;64211.19;4955381;29;20086;-86
2023/05/04 08:42:50;;;;;;;11.95;5.63;;;;;;;14.75;56.10;64222.97;4952855;29;20470;-86
2023/05/04 08:45:16;;;;;;;8.80;5.70;;;;;;;14.86;53.25;64234.16;4934696;29;20398;-86
2023/05/04 08:47:42;;;;;;;6.90;5.43;;;;;;;14.96;54.14;64244.91;4951915;28;20031;-86
2023/05/04 08:50:09;;;;;;;7.37;5.60;;;;;;;15.07;53.56;64256.59;4951859;29;20028;-86
2023/05/04 08:52:36;;;;;;;7.38;5.20;;;;;;;15.18;52.34;64267.16;4952270;29;20035;-86
2023/05/04 08:55:03;;;;;;;9.15;5.65;;;;;;;15.28;53.50;64277.34;4951397;29;20034;-86
2023/05/04 08:57:29;;;;;;;11.57;5.60;;;;;;;15.39;53.53;64287.69;4951628;28;20422;-87
2023/05/04 08:59:56;;;;;;;8.83;5.57;;;;;;;15.49;52.77;64298.03;4952184;29;20039;-86
2023/05/04 09:02:22;;;;;;;8.68;5.43;;;;;;;15.59;51.95;64308.56;4952216;29;20038;-86
2023/05/04 09:04:49;;;;;;;12.68;5.60;;;;;;;15.69;52.22;64318.56;4951721;28;20155;-85
2023/05/04 09:07:16;;;;;;;8.60;5.38;;;;;;;15.80;50.94;64329.06;4951514;29;20027;-88
2023/05/04 09:09:41;;;;;;;9.90;5.22;;;;;;;15.90;50.33;64339.78;4952087;29;20106;-87
2023/05/04 09:12:07;;;;;;;11.93;5.67;;;;;;;16.00;52.27;64350.22;4951530;29;20055;-86
2023/05/04 09:14:35;;;;;;;13.57;5.75;;;;;;;16.11;50.94;64360.81;4952177;28;20050;-86
2023/05/04 09:17:02;;;;;;;10.13;6.00;;;;;;;16.22;52.48;64372.00;4951310;29;20058;-86
2023/05/04 09:19:32;;;;;;;10.40;6.03;;;;;;;16.32;50.65;64383.19;4952268;29;20027;-86
2023/05/04 09:21:59;;;;;;;7.75;5.47;;;;;;;16.43;51.14;64394.47;4951806;28;20544;-86
2023/05/04 09:24:28;;;;;;;10.57;5.53;;;;;;;16.54;49.84;64405.31;4951070;28;20491;-86
2023/05/04 09:26:54;;;;;;;7.37;5.40;;;;;;;16.65;48.98;64415.34;4951083;29;20186;-86
2023/05/04 09:29:21;;;;;;;11.20;5.30;;;;;;;16.75;51.19;64425.19;4953782;28;20370;-86
2023/05/04 09:31:46;;;;;;;12.02;5.50;;;;;;;16.86;49.73;64436.28;4956002;29;20101;-86
2023/05/04 09:34:12;;;;;;;9.47;5.13;;;;;;;16.97;48.09;64447.91;4955381;29;20110;-87
2023/05/04 09:36:38;;;;;;;8.75;5.30;;;;;;;17.08;48.44;64459.34;4954906;28;20031;-86
2023/05/04 09:39:13;;;;;;;12.37;5.60;;;;;;;17.19;49.60;64470.72;4955457;29;20038;-86
2023/05/04 09:41:40;;;;;;;10.65;5.93;;;;;;;17.30;46.86;64481.50;4955804;29;20034;-87
2023/05/04 09:44:16;;;;;;;11.07;5.50;;;;;;;17.40;49.30;64492.28;4955566;29;20497;-86
2023/05/04 09:46:42;;;;;;;12.93;5.88;;;;;;;17.51;48.23;64503.63;4954605;28;20129;-86
2023/05/04 09:49:07;;;;;;;11.77;5.60;;;;;;;17.62;47.10;64514.84;4955374;29;20114;-86
2023/05/04 09:51:33;;;;;;;12.95;5.78;;;;;;;17.72;47.33;64525.09;4955252;28;20042;-86
2023/05/04 09:54:01;;;;;;;12.63;5.80;;;;;;;17.83;48.77;64535.91;4955424;29;20055;-86
2023/05/04 09:56:36;;;;;;;9.68;5.80;;;;;;;17.93;46.07;64546.16;4954666;28;20038;-86
2023/05/04 09:59:03;;;;;;;12.57;6.05;;;;;;;18.03;45.70;64556.22;4955130;29;20554;-87
2023/05/04 10:01:29;;;;;;;10.07;5.80;;;;;;;18.13;47.20;64566.09;4938127;29;20032;-87
2023/05/04 10:03:55;;;;;;;8.93;5.80;;;;;;;18.22;45.81;64575.34;4955355;29;20038;-87
2023/05/04 10:06:22;;;;;;;7.35;5.68;;;;;;;18.30;46.56;64584.22;4953653;28;20502;-87
2023/05/04 10:08:49;;;;;;;10.27;5.55;;;;;;;18.40;48.28;64593.75;4955016;29;20378;-87
2023/05/04 10:11:17;;;;;;;9.57;5.90;;;;;;;18.49;45.27;64602.44;4955123;29;20375;-87
2023/05/04 10:13:45;;;;;;;8.93;6.18;;;;;;;18.57;45.06;64610.63;4954920;29;20023;-87
2023/05/04 10:16:28;;;;;;;12.20;6.30;;;;;;;18.65;45.75;64618.81;4954079;28;20061;-87
2023/05/04 10:18:57;;;;;;;10.33;6.17;;;;;;;18.73;45.07;64626.84;4955193;29;20306;-86
2023/05/04 10:21:34;;;;;;;9.30;5.72;;;;;;;18.82;46.30;64635.72;4954674;29;20145;-86
2023/05/04 10:24:15;;;;;;;8.32;6.28;;;;;;;18.90;44.30;64644.16;4954970;29;20019;-86
2023/05/04 10:27:14;;;;;;;10.88;5.70;;;;;;;18.99;44.90;64653.06;4953886;28;20039;-87
2023/05/04 10:29:41;;;;;;;10.60;6.15;;;;;;;19.08;43.61;64661.66;4923314;29;20043;-86
2023/05/04 10:32:17;;;;;;;10.30;6.30;;;;;;;19.16;45.16;64670.53;4954663;29;20027;-86
2023/05/04 10:34:43;;;;;;;10.25;6.18;;;;;;;19.26;44.27;64679.97;4954530;28;20027;-87
2023/05/04 10:37:16;;;;;;;7.97;5.73;;;;;;;19.35;44.37;64689.28;4953912;29;20475;-87
2023/05/04 10:39:49;;;;;;;7.10;5.97;;;;;;;19.44;43.72;64698.56;4954696;28;20031;-87
2023/05/04 10:42:15;;;;;;;10.48;6.03;;;;;;;19.54;43.97;64708.75;4954323;29;20367;-87
2023/05/04 10:44:56;;;;;;;9.03;5.80;;;;;;;19.64;44.57;64719.38;4954008;28;20038;-87
2023/05/04 10:47:41;;;;;;;9.18;5.53;;;;;;;19.73;43.59;64728.84;4954277;29;20031;-86
2023/05/04 10:50:09;;;;;;;10.50;5.57;;;;;;;19.83;43.84;64739.31;4953877;29;20479;-87
2023/05/04 10:52:48;;;;;;;8.77;5.47;;;;;;;19.94;42.24;64749.69;4954395;29;20031;-86
2023/05/04 10:55:14;;;;;;;8.10;5.80;;;;;;;20.04;42.79;64759.72;4953315;28;20442;-88
2023/05/04 10:57:50;;;;;;;6.63;5.32;;;;;;;20.13;41.92;64769.47;4954524;29;20037;-87
2023/05/04 11:00:17;;;;;;;7.60;4.43;;;;;;;20.21;42.16;64777.66;4955547;29;20031;-86
2023/05/04 11:02:42;;;;;;;8.40;4.60;;;;;;;20.30;40.80;64786.03;4956505;29;20271;-87
2023/05/04 11:05:08;;;;;;;7.32;4.38;;;;;;;20.38;40.13;64794.81;4942911;28;20135;-87
2023/05/04 11:07:38;;;;;;;10.60;4.60;;;;;;;20.47;41.08;64804.09;4935214;29;20042;-87
2023/05/04 11:10:18;;;;;;;6.68;4.10;;;;;;;20.56;39.97;64812.97;4934515;29;20028;-87
2023/05/04 11:12:44;;;;;;;7.30;4.07;;;;;;;20.64;38.87;64821.25;4935029;29;20107;-85
2023/05/04 11:15:10;;;;;;;5.77;4.90;;;;;;;20.70;38.95;64827.47;4945269;28;20106;-87
2023/05/04 11:17:49;;;;;;;8.02;4.18;;;;;;;20.77;39.64;64834.50;4953956;29;20066;-86
2023/05/04 11:20:25;;;;;;;5.85;4.40;;;;;;;20.84;39.60;64841.81;4953725;29;20533;-86
2023/05/04 11:22:53;;;;;;;5.70;3.88;;;;;;;20.92;39.91;64849.50;4953777;29;20051;-86
2023/05/04 11:25:28;;;;;;;7.55;4.90;;;;;;;20.99;39.11;64856.13;4952374;28;20035;-86
2023/05/04 11:27:54;;;;;;;7.93;4.57;;;;;;;21.05;39.51;64862.47;4953381;29;20070;-87
2023/05/04 11:30:20;;;;;;;7.00;3.77;;;;;;;21.12;38.54;64869.50;4953698;29;20105;-86
2023/05/04 11:32:45;;;;;;;6.03;4.53;;;;;;;21.21;38.24;64878.13;4953649;29;20027;-87
2023/05/04 11:35:19;;;;;;;6.07;4.03;;;;;;;21.29;37.39;64887.28;4952718;28;20046;-86
2023/05/04 11:37:46;;;;;;;8.25;4.50;;;;;;;21.37;36.97;64895.50;4953780;29;20043;-87
2023/05/04 11:40:17;;;;;;;7.35;4.20;;;;;;;21.45;37.77;64903.19;4952986;29;20089;-87
2023/05/04 11:42:42;;;;;;;5.15;4.22;;;;;;;21.53;37.57;64911.47;4953802;29;20494;-87
2023/05/04 11:45:28;;;;;;;5.60;3.90;;;;;;;21.60;37.18;64918.78;4952207;28;20027;-87
2023/05/04 11:47:55;;;;;;;8.20;4.20;;;;;;;21.68;36.76;64927.16;4953580;29;20031;-86
2023/05/04 11:50:21;;;;;;;10.02;3.85;;;;;;;21.78;35.97;64937.22;4952880;29;20471;-87
2023/05/04 11:52:47;;;;;;;9.32;4.53;;;;;;;21.87;35.57;64946.19;4952723;28;20081;-86
2023/05/04 11:55:26;;;;;;;8.77;4.05;;;;;;;21.96;36.63;64955.75;4951919;28;20035;-87
2023/05/04 11:58:02;;;;;;;10.95;4.20;;;;;;;22.05;36.10;64964.53;4953562;29;20179;-87
2023/05/04 12:00:41;;;;;;;9.10;4.95;;;;;;;22.13;35.61;64972.50;4953302;29;20027;-86
2023/05/04 12:03:10;;;;;;;8.55;5.00;;;;;;;22.20;34.96;64979.09;4935490;29;20035;-86
2023/05/04 12:05:36;;;;;;;8.33;4.40;;;;;;;22.27;36.67;64986.84;4952447;28;20077;-86
2023/05/04 12:08:02;;;;;;;5.93;4.30;;;;;;;22.35;35.64;64994.88;4952480;29;20283;-87
2023/05/04 12:10:28;;;;;;;7.50;4.30;;;;;;;22.43;34.87;65003.25;4953085;29;20166;-86
2023/05/04 12:12:54;;;;;;;8.45;4.25;;;;;;;22.51;34.78;65011.72;4952777;29;20058;-86
2023/05/04 12:15:35;;;;;;;7.03;5.23;;;;;;;22.57;36.44;65017.44;4951833;28;20019;-86
2023/05/04 12:18:00;;;;;;;6.00;4.68;;;;;;;22.63;35.95;65023.97;4952648;28;20028;-85
2023/05/04 12:20:27;;;;;;;8.13;5.07;;;;;;;22.69;35.17;65030.09;4935657;29;20027;-86
2023/05/04 12:22:56;;;;;;;6.22;4.55;;;;;;;22.75;35.37;65036.22;4953044;29;20032;-86
2023/05/04 12:25:25;;;;;;;7.75;5.18;;;;;;;22.82;35.14;65042.69;4951067;28;20113;-86
2023/05/04 12:27:50;;;;;;;5.97;4.82;;;;;;;22.89;34.92;65050.38;4952792;29;20022;-87
2023/05/04 12:30:16;;;;;;;6.77;4.50;;;;;;;22.95;35.06;65056.66;4935101;29;20383;-85
2023/05/04 12:32:42;;;;;;;7.13;4.72;;;;;;;23.01;35.03;65062.03;4952738;28;20023;-86
2023/05/04 12:35:08;;;;;;;5.93;4.88;;;;;;;23.06;36.22;65067.25;4951618;28;20027;-87
2023/05/04 12:37:33;;;;;;;9.75;4.72;;;;;;;23.11;35.21;65072.19;4952666;29;20065;-87
2023/05/04 12:39:59;;;;;;;8.17;4.70;;;;;;;23.16;34.57;65077.31;4952171;29;20495;-87
2023/05/04 12:42:24;;;;;;;8.57;3.90;;;;;;;23.20;35.12;65082.09;4935102;29;20062;-86
2023/05/04 12:44:50;;;;;;;7.13;4.40;;;;;;;23.27;34.78;65089.31;4951786;28;20027;-86
2023/05/04 12:47:16;;;;;;;7.17;4.30;;;;;;;23.34;35.83;65095.94;4952001;29;20015;-86
2023/05/04 12:49:43;;;;;;;5.75;4.28;;;;;;;23.41;34.71;65103.25;4952482;29;20027;-86
2023/05/04 12:52:08;;;;;;;6.50;4.25;;;;;;;23.47;34.15;65109.69;4951737;28;20066;-86
2023/05/04 12:54:34;;;;;;;6.30;4.40;;;;;;;23.53;33.58;65116.25;4951960;28;20058;-86
2023/05/04 12:56:59;;;;;;;10.53;4.27;;;;;;;23.61;32.49;65123.63;4950896;29;20299;-86
2023/05/04 12:59:25;;;;;;;7.40;4.23;;;;;;;23.67;32.93;65130.00;4952086;29;20036;-87
2023/05/04 13:01:50;;;;;;;8.02;4.10;;;;;;;23.74;33.93;65137.72;4952493;29;20023;-86
2023/05/04 13:04:16;;;;;;;7.57;4.00;;;;;;;23.82;33.31;65145.34;4951438;28;20027;-87
2023/05/04 13:06:44;;;;;;;7.97;4.70;;;;;;;23.89;34.98;65152.22;4935554;29;20586;-86
2023/05/04 13:09:09;;;;;;;6.80;4.07;;;;;;;23.96;32.74;65160.03;4953897;29;20497;-86
2023/05/04 13:11:35;;;;;;;7.07;3.80;;;;;;;24.04;32.09;65167.50;4954732;29;20086;-87
2023/05/04 13:14:00;;;;;;;5.03;3.83;;;;;;;24.10;32.35;65174.56;4953765;28;20039;-87
2023/05/04 13:16:26;;;;;;;8.02;4.03;;;;;;;24.17;33.69;65180.94;4953094;29;20029;-86
2023/05/04 13:18:55;;;;;;;6.82;4.32;;;;;;;24.23;32.12;65186.91;4952304;29;20090;-86
2023/05/04 13:21:21;;;;;;;5.73;4.13;;;;;;;24.27;33.15;65190.75;4951492;29;20106;-86
2023/05/04 13:23:46;;;;;;;9.37;3.80;;;;;;;24.32;33.22;65195.69;4951326;28;20740;-86
2023/05/04 13:26:11;;;;;;;9.00;4.57;;;;;;;24.37;32.26;65200.56;4951038;29;20554;-86
2023/05/04 13:28:37;;;;;;;9.17;4.13;;;;;;;24.41;32.09;65205.13;4952192;29;20031;-86
2023/05/04 13:31:04;;;;;;;10.70;3.80;;;;;;;24.46;31.49;65210.22;4952050;29;20054;-85
2023/05/04 13:33:31;;;;;;;8.87;4.43;;;;;;;24.51;32.41;65214.91;4950195;29;20024;-88
2023/05/04 13:35:56;;;;;;;7.55;3.70;;;;;;;24.56;33.32;65220.38;4952051;29;20027;-86
2023/05/04 13:38:22;;;;;;;5.78;4.20;;;;;;;24.60;32.21;65224.31;4952053;29;20035;-86
2023/05/04 13:40:47;;;;;;;10.87;3.80;;;;;;;24.64;32.30;65228.34;4953492;29;20033;-85
2023/05/04 13:43:12;;;;;;;9.37;4.17;;;;;;;24.68;32.42;65232.28;4951364;29;20023;-86
2023/05/04 13:45:38;;;;;;;4.07;3.67;;;;;;;24.73;32.29;65236.59;4951291;28;20059;-86
2023/05/04 13:48:03;;;;;;;9.02;3.70;;;;;;;24.78;30.97;65241.56;4951624;29;20561;-86
2023/05/04 13:50:30;;;;;;;6.60;4.30;;;;;;;24.80;30.93;65244.66;4966480;28;20038;-86
2023/05/04 13:52:55;;;;;;;7.50;4.05;;;;;;;24.84;31.35;65247.91;4951789;28;20078;-86
2023/05/04 13:55:21;;;;;;;8.47;4.83;;;;;;;24.87;31.79;65250.88;4949940;28;20031;-86
2023/05/04 13:57:46;;;;;;;9.60;4.27;;;;;;;24.90;31.12;65254.56;4950888;28;20031;-87
2023/05/04 14:00:12;;;;;;;7.53;3.77;;;;;;;24.95;32.40;65259.00;4951193;29;20027;-87
2023/05/04 14:02:37;;;;;;;8.90;4.15;;;;;;;25.01;32.07;65265.47;4951764;29;20415;-85
2023/05/04 14:05:03;;;;;;;8.73;3.67;;;;;;;25.07;31.26;65271.09;4951093;29;20027;-86
2023/05/04 14:07:28;;;;;;;4.23;3.83;;;;;;;25.12;29.74;65276.63;4950781;28;20078;-86
2023/05/04 14:09:54;;;;;;;9.18;3.90;;;;;;;25.16;29.99;65280.41;4951466;29;20471;-86
2023/05/04 14:12:20;;;;;;;6.90;4.03;;;;;;;25.21;30.32;65285.59;4933912;29;20033;-86
2023/05/04 14:14:45;;;;;;;11.60;4.30;;;;;;;25.27;29.42;65291.50;4952527;28;20023;-86
2023/05/04 14:17:11;;;;;;;7.33;4.20;;;;;;;25.31;30.28;65295.78;4954043;28;20035;-85
2023/05/04 14:19:36;;;;;;;11.87;4.60;;;;;;;25.35;30.75;65299.28;4954951;29;20032;-85
2023/05/04 14:22:01;;;;;;;10.97;4.20;;;;;;;25.39;30.12;65304.00;4954798;29;20038;-86
2023/05/04 14:24:28;;;;;;;6.80;4.10;;;;;;;25.46;29.42;65310.84;4954843;29;20043;-86
2023/05/04 14:26:53;;;;;;;9.95;3.90;;;;;;;25.52;28.45;65317.63;4954021;28;20069;-86
2023/05/04 14:29:19;;;;;;;8.40;3.70;;;;;;;25.60;28.41;65324.94;4953955;29;20062;-86
2023/05/04 14:31:44;;;;;;;6.23;4.20;;;;;;;25.67;28.24;65332.41;4955002;29;20078;-86
2023/05/04 14:34:11;;;;;;;6.83;4.20;;;;;;;25.73;27.55;65338.88;4954489;29;20030;-86
2023/05/04 14:36:36;;;;;;;7.38;3.60;;;;;;;25.78;27.69;65343.84;4954524;28;20471;-86
2023/05/04 14:39:02;;;;;;;9.10;4.23;;;;;;;25.83;28.15;65348.34;4954206;29;20039;-85
2023/05/04 14:41:32;;;;;;;5.63;3.72;;;;;;;25.87;28.53;65352.91;4954589;29;20565;-85
2023/05/04 14:43:58;;;;;;;7.68;3.88;;;;;;;25.92;27.62;65357.84;4954522;29;20490;-86
2023/05/04 14:46:24;;;;;;;7.20;3.80;;;;;;;25.96;27.71;65361.88;4953523;28;20019;-86
2023/05/04 14:48:49;;;;;;;8.10;3.40;;;;;;;25.98;27.90;65363.56;4954682;29;20155;-89
2023/05/04 14:51:20;;;;;;;10.33;4.13;;;;;;;25.98;28.41;65363.91;4936725;29;20105;-87
2023/05/04 14:53:46;;;;;;;9.90;3.83;;;;;;;25.99;28.49;65364.31;4954435;29;20027;-86
2023/05/04 14:56:11;;;;;;;7.43;4.03;;;;;;;25.97;29.09;65361.78;4953291;28;20034;-86
2023/05/04 14:58:37;;;;;;;6.30;4.00;;;;;;;25.94;28.95;65358.34;4954038;29;20166;-86
2023/05/04 15:01:02;;;;;;;6.13;3.55;;;;;;;25.88;28.50;65352.63;4954106;29;20043;-86
2023/05/04 15:03:27;;;;;;;5.17;3.37;;;;;;;25.83;28.99;65347.50;4946783;29;20023;-86
2023/05/04 15:05:53;;;;;;;5.67;3.27;;;;;;;25.80;28.85;65343.81;4953356;28;20106;-86
2023/05/04 15:08:18;;;;;;;5.90;3.33;;;;;;;25.77;29.15;65341.81;4953462;29;20050;-85
2023/05/04 15:10:43;;;;;;;6.00;3.87;;;;;;;25.77;29.10;65341.13;4954226;29;20027;-86
2023/05/04 15:13:11;;;;;;;5.80;3.30;;;;;;;25.78;28.54;65341.78;4953972;29;20085;-86
2023/05/04 15:15:39;;;;;;;5.07;3.50;;;;;;;25.81;26.92;65344.72;4945557;28;20349;-86
2023/05/04 15:18:05;;;;;;;6.65;3.47;;;;;;;25.85;27.12;65348.25;4934844;29;20032;-87
2023/05/04 15:20:30;;;;;;;8.77;3.55;;;;;;;25.90;27.63;65353.47;4934662;29;20027;-86